sensor_id;sensor_type;location;lat;lon;timestamp;pressure;altitude;pressure_sealevel;temperature;humidity
74230;BME280;62589;12.568;99.958;2023-07-31T00:02:16;100511.66;;;34.06;58.56
74230;BME280;62589;12.568;99.958;2023-07-31T00:04:42;100510.88;;;34.05;58.60
74230;BME280;62589;12.568;99.958;2023-07-31T00:07:09;100510.09;;;34.05;58.51
74230;BME280;62589;12.568;99.958;2023-07-31T00:09:36;100520.84;;;34.03;58.40
74230;BME280;62589;12.568;99.958;2023-07-31T00:12:02;100517.66;;;34.04;58.44
74230;BME280;62589;12.568;99.958;2023-07-31T00:14:29;100531.19;;;34.02;59.01
74230;BME280;62589;12.568;99.958;2023-07-31T00:16:55;100530.78;;;34.04;59.10
74230;BME280;62589;12.568;99.958;2023-07-31T00:19:22;100532.38;;;34.05;58.98
74230;BME280;62589;12.568;99.958;2023-07-31T00:21:48;100535.56;;;34.03;59.30
74230;BME280;62589;12.568;99.958;2023-07-31T00:24:15;100544.72;;;34.04;59.33
74230;BME280;62589;12.568;99.958;2023-07-31T00:26:41;100554.66;;;34.05;59.51
74230;BME280;62589;12.568;99.958;2023-07-31T00:29:08;100549.09;;;34.05;59.92
74230;BME280;62589;12.568;99.958;2023-07-31T00:31:34;100556.66;;;34.04;59.41
74230;BME280;62589;12.568;99.958;2023-07-31T00:34:01;100547.88;;;34.06;59.55
74230;BME280;62589;12.568;99.958;2023-07-31T00:36:27;100557.84;;;34.07;59.99
74230;BME280;62589;12.568;99.958;2023-07-31T00:38:53;100555.84;;;34.07;59.48
74230;BME280;62589;12.568;99.958;2023-07-31T00:41:20;100553.44;;;34.09;59.97
74230;BME280;62589;12.568;99.958;2023-07-31T00:43:47;100556.22;;;34.09;59.65
74230;BME280;62589;12.568;99.958;2023-07-31T00:46:13;100565.75;;;34.12;59.33
74230;BME280;62589;12.568;99.958;2023-07-31T00:48:40;100562.97;;;34.12;59.25
74230;BME280;62589;12.568;99.958;2023-07-31T00:51:08;100566.16;;;34.10;59.24
74230;BME280;62589;12.568;99.958;2023-07-31T00:53:36;100565.75;;;34.12;59.27
74230;BME280;62589;12.568;99.958;2023-07-31T00:56:03;100567.75;;;34.15;59.18
74230;BME280;62589;12.568;99.958;2023-07-31T00:58:31;100573.72;;;34.17;59.38
74230;BME280;62589;12.568;99.958;2023-07-31T01:00:58;100570.13;;;34.17;58.83
74230;BME280;62589;12.568;99.958;2023-07-31T01:03:24;100587.25;;;34.19;58.76
74230;BME280;62589;12.568;99.958;2023-07-31T01:06:15;100586.84;;;34.17;58.88
74230;BME280;62589;12.568;99.958;2023-07-31T01:11:53;100591.22;;;34.18;59.42
74230;BME280;62589;12.568;99.958;2023-07-31T01:14:19;100591.63;;;34.20;59.52
74230;BME280;62589;12.568;99.958;2023-07-31T01:16:46;100604.75;;;34.19;60.08
74230;BME280;62589;12.568;99.958;2023-07-31T01:19:14;100596.81;;;34.18;60.21
74230;BME280;62589;12.568;99.958;2023-07-31T01:27:59;100614.31;;;34.25;59.76
74230;BME280;62589;12.568;99.958;2023-07-31T01:30:32;100607.94;;;34.21;60.30
74230;BME280;62589;12.568;99.958;2023-07-31T01:33:03;100610.72;;;34.25;60.42
74230;BME280;62589;12.568;99.958;2023-07-31T01:35:36;100610.72;;;34.21;59.85
74230;BME280;62589;12.568;99.958;2023-07-31T01:38:04;100608.75;;;34.22;59.63
74230;BME280;62589;12.568;99.958;2023-07-31T01:40:31;100620.28;;;34.24;59.70
74230;BME280;62589;12.568;99.958;2023-07-31T01:42:57;100611.53;;;34.25;59.45
74230;BME280;62589;12.568;99.958;2023-07-31T01:45:24;100616.69;;;34.27;60.19
74230;BME280;62589;12.568;99.958;2023-07-31T01:47:50;100625.06;;;34.27;59.74
74230;BME280;62589;12.568;99.958;2023-07-31T01:50:17;100613.13;;;34.26;59.54
74230;BME280;62589;12.568;99.958;2023-07-31T01:52:43;100607.16;;;34.28;59.63
74230;BME280;62589;12.568;99.958;2023-07-31T01:55:10;100605.56;;;34.27;59.33
74230;BME280;62589;12.568;99.958;2023-07-31T01:57:37;100605.97;;;34.29;59.65
74230;BME280;62589;12.568;99.958;2023-07-31T02:00:04;100609.56;;;34.29;59.73
74230;BME280;62589;12.568;99.958;2023-07-31T02:02:31;100606.78;;;34.29;59.35
74230;BME280;62589;12.568;99.958;2023-07-31T02:04:58;100610.72;;;34.32;59.35
74230;BME280;62589;12.568;99.958;2023-07-31T02:07:24;100621.47;;;34.33;59.30
74230;BME280;62589;12.568;99.958;2023-07-31T02:09:51;100626.66;;;34.35;59.36
74230;BME280;62589;12.568;99.958;2023-07-31T02:12:17;100624.66;;;34.39;59.08
74230;BME280;62589;12.568;99.958;2023-07-31T02:14:44;100630.22;;;34.39;59.23
74230;BME280;62589;12.568;99.958;2023-07-31T02:17:11;100626.63;;;34.38;58.98
74230;BME280;62589;12.568;99.958;2023-07-31T02:19:37;100627.44;;;34.35;59.22
74230;BME280;62589;12.568;99.958;2023-07-31T02:22:04;100635.41;;;34.40;59.12
74230;BME280;62589;12.568;99.958;2023-07-31T02:24:30;100636.19;;;34.37;59.21
74230;BME280;62589;12.568;99.958;2023-07-31T02:26:57;100635.81;;;34.39;58.56
74230;BME280;62589;12.568;99.958;2023-07-31T02:29:33;100632.63;;;34.40;57.84
74230;BME280;62589;12.568;99.958;2023-07-31T02:32:03;100641.38;;;34.42;57.57
74230;BME280;62589;12.568;99.958;2023-07-31T02:34:30;100632.22;;;34.45;57.04
74230;BME280;62589;12.568;99.958;2023-07-31T02:36:57;100636.19;;;34.44;56.97
74230;BME280;62589;12.568;99.958;2023-07-31T02:39:23;100638.56;;;34.50;57.22
74230;BME280;62589;12.568;99.958;2023-07-31T02:41:50;100641.38;;;34.50;56.01
74230;BME280;62589;12.568;99.958;2023-07-31T02:44:16;100644.50;;;34.52;56.21
74230;BME280;62589;12.568;99.958;2023-07-31T02:46:42;100645.31;;;34.56;56.17
74230;BME280;62589;12.568;99.958;2023-07-31T02:49:09;100643.31;;;34.56;55.59
74230;BME280;62589;12.568;99.958;2023-07-31T02:51:35;100644.09;;;34.60;55.83
74230;BME280;62589;12.568;99.958;2023-07-31T02:54:02;100637.72;;;34.63;56.10
74230;BME280;62589;12.568;99.958;2023-07-31T02:56:28;100656.44;;;34.66;55.97
74230;BME280;62589;12.568;99.958;2023-07-31T02:58:55;100666.00;;;34.69;55.61
74230;BME280;62589;12.568;99.958;2023-07-31T03:01:21;100657.63;;;34.69;54.85
74230;BME280;62589;12.568;99.958;2023-07-31T03:03:48;100664.41;;;34.68;54.03
74230;BME280;62589;12.568;99.958;2023-07-31T03:06:14;100652.44;;;34.67;53.42
74230;BME280;62589;12.568;99.958;2023-07-31T03:08:40;100655.22;;;34.71;53.87
74230;BME280;62589;12.568;99.958;2023-07-31T03:11:07;100652.84;;;34.69;53.85
74230;BME280;62589;12.568;99.958;2023-07-31T03:13:33;100647.22;;;34.76;54.00
74230;BME280;62589;12.568;99.958;2023-07-31T03:16:00;100650.41;;;34.86;55.31
74230;BME280;62589;12.568;99.958;2023-07-31T03:18:26;100650.41;;;34.75;53.50
74230;BME280;62589;12.568;99.958;2023-07-31T03:20:53;100647.66;;;34.78;53.97
74230;BME280;62589;12.568;99.958;2023-07-31T03:23:19;100644.84;;;34.82;53.36
74230;BME280;62589;12.568;99.958;2023-07-31T03:26:02;100649.63;;;34.85;53.45
74230;BME280;62589;12.568;99.958;2023-07-31T03:28:30;100645.19;;;34.95;54.38
74230;BME280;62589;12.568;99.958;2023-07-31T03:30:56;100643.16;;;35.02;53.90
74230;BME280;62589;12.568;99.958;2023-07-31T03:33:23;100637.56;;;35.06;53.79
74230;BME280;62589;12.568;99.958;2023-07-31T03:35:50;100642.72;;;35.11;53.10
74230;BME280;62589;12.568;99.958;2023-07-31T03:38:16;100635.47;;;35.21;54.31
74230;BME280;62589;12.568;99.958;2023-07-31T03:40:45;100634.66;;;35.31;53.72
74230;BME280;62589;12.568;99.958;2023-07-31T03:43:13;100630.59;;;35.39;53.60
74230;BME280;62589;12.568;99.958;2023-07-31T03:45:39;100622.59;;;35.44;53.71
74230;BME280;62589;12.568;99.958;2023-07-31T03:48:06;100625.28;;;35.55;52.43
74230;BME280;62589;12.568;99.958;2023-07-31T03:50:33;100623.25;;;35.63;52.75
74230;BME280;62589;12.568;99.958;2023-07-31T03:53:00;100614.81;;;35.70;51.83
74230;BME280;62589;12.568;99.958;2023-07-31T03:55:26;100615.59;;;35.74;51.10
74230;BME280;62589;12.568;99.958;2023-07-31T03:57:53;100612.00;;;35.73;50.15
74230;BME280;62589;12.568;99.958;2023-07-31T04:00:19;100612.78;;;35.77;49.87
74230;BME280;62589;12.568;99.958;2023-07-31T04:02:47;100623.13;;;35.80;49.87
74230;BME280;62589;12.568;99.958;2023-07-31T04:05:13;100609.91;;;35.85;49.89
74230;BME280;62589;12.568;99.958;2023-07-31T04:07:40;100613.47;;;35.89;50.40
74230;BME280;62589;12.568;99.958;2023-07-31T04:10:07;100607.88;;;35.92;50.12
74230;BME280;62589;12.568;99.958;2023-07-31T04:12:33;100607.06;;;35.92;50.01
74230;BME280;62589;12.568;99.958;2023-07-31T04:15:00;100610.25;;;35.94;49.68
74230;BME280;62589;12.568;99.958;2023-07-31T04:17:26;100615.44;;;35.95;49.32
74230;BME280;62589;12.568;99.958;2023-07-31T04:19:52;100611.03;;;35.94;48.34
74230;BME280;62589;12.568;99.958;2023-07-31T04:22:19;100603.81;;;35.97;48.37
74230;BME280;62589;12.568;99.958;2023-07-31T04:24:45;100589.81;;;36.00;48.63
74230;BME280;62589;12.568;99.958;2023-07-31T04:27:12;100593.38;;;36.04;49.24
74230;BME280;62589;12.568;99.958;2023-07-31T04:29:38;100586.16;;;36.07;49.26
74230;BME280;62589;12.568;99.958;2023-07-31T04:32:08;100580.50;;;36.14;49.09
74230;BME280;62589;12.568;99.958;2023-07-31T04:34:35;100575.66;;;36.18;48.86
74230;BME280;62589;12.568;99.958;2023-07-31T04:37:01;100562.00;;;36.27;48.45
74230;BME280;62589;12.568;99.958;2023-07-31T04:39:27;100574.69;;;36.35;47.59
74230;BME280;62589;12.568;99.958;2023-07-31T04:41:54;100564.16;;;36.46;47.90
74230;BME280;62589;12.568;99.958;2023-07-31T04:44:20;100556.91;;;36.53;47.71
74230;BME280;62589;12.568;99.958;2023-07-31T04:46:47;100542.78;;;36.63;46.19
74230;BME280;62589;12.568;99.958;2023-07-31T04:49:13;100546.28;;;36.71;45.84
74230;BME280;62589;12.568;99.958;2023-07-31T04:51:40;100535.84;;;36.75;45.50
74230;BME280;62589;12.568;99.958;2023-07-31T04:54:06;100537.31;;;36.83;44.49
74230;BME280;62589;12.568;99.958;2023-07-31T04:56:33;100544.88;;;36.86;43.04
74230;BME280;62589;12.568;99.958;2023-07-31T04:58:59;100545.16;;;36.95;42.40
74230;BME280;62589;12.568;99.958;2023-07-31T05:01:26;100539.94;;;36.97;42.85
74230;BME280;62589;12.568;99.958;2023-07-31T05:03:52;100552.59;;;37.05;43.08
74230;BME280;62589;12.568;99.958;2023-07-31T05:06:19;100544.13;;;37.09;42.18
74230;BME280;62589;12.568;99.958;2023-07-31T05:08:46;100554.06;;;37.13;42.29
74230;BME280;62589;12.568;99.958;2023-07-31T05:11:12;100559.34;;;37.08;41.18
74230;BME280;62589;12.568;99.958;2023-07-31T05:13:39;100551.75;;;37.08;40.93
74230;BME280;62589;12.568;99.958;2023-07-31T05:16:05;100536.06;;;37.14;41.34
74230;BME280;62589;12.568;99.958;2023-07-31T05:18:32;100532.81;;;37.20;41.73
74230;BME280;62589;12.568;99.958;2023-07-31T05:20:58;100527.22;;;37.20;41.10
74230;BME280;62589;12.568;99.958;2023-07-31T05:23:25;100532.38;;;37.21;41.71
74230;BME280;62589;12.568;99.958;2023-07-31T05:26:05;100526.78;;;37.21;41.02
74230;BME280;62589;12.568;99.958;2023-07-31T05:28:38;100521.53;;;37.23;41.25
74230;BME280;62589;12.568;99.958;2023-07-31T05:31:07;100528.31;;;37.26;41.74
74230;BME280;62589;12.568;99.958;2023-07-31T05:33:37;100525.44;;;37.29;42.06
74230;BME280;62589;12.568;99.958;2023-07-31T05:36:06;100511.03;;;37.31;40.91
74230;BME280;62589;12.568;99.958;2023-07-31T05:38:33;100528.56;;;37.35;41.31
74230;BME280;62589;12.568;99.958;2023-07-31T05:40:59;100520.16;;;37.35;40.60
74230;BME280;62589;12.568;99.958;2023-07-31T05:43:26;100510.56;;;37.36;40.81
74230;BME280;62589;12.568;99.958;2023-07-31T05:45:57;100506.97;;;37.35;41.33
74230;BME280;62589;12.568;99.958;2023-07-31T05:48:24;100506.91;;;37.39;41.88
74230;BME280;62589;12.568;99.958;2023-07-31T05:50:50;100501.66;;;37.41;41.66
74230;BME280;62589;12.568;99.958;2023-07-31T05:53:20;100500.09;;;37.40;41.40
74230;BME280;62589;12.568;99.958;2023-07-31T05:56:04;100500.50;;;37.38;41.28
74230;BME280;62589;12.568;99.958;2023-07-31T05:58:33;100506.97;;;37.35;40.79
74230;BME280;62589;12.568;99.958;2023-07-31T06:01:16;100506.53;;;37.37;40.93
74230;BME280;62589;12.568;99.958;2023-07-31T06:03:43;100515.03;;;37.30;42.21
74230;BME280;62589;12.568;99.958;2023-07-31T06:06:10;100517.09;;;37.26;42.99
74230;BME280;62589;12.568;99.958;2023-07-31T06:08:37;100500.78;;;37.21;42.83
74230;BME280;62589;12.568;99.958;2023-07-31T06:11:03;100484.03;;;37.17;43.11
74230;BME280;62589;12.568;99.958;2023-07-31T06:13:30;100486.78;;;37.21;43.65
74230;BME280;62589;12.568;99.958;2023-07-31T06:15:56;100484.00;;;37.21;44.45
74230;BME280;62589;12.568;99.958;2023-07-31T06:18:25;100473.63;;;37.17;43.88
74230;BME280;62589;12.568;99.958;2023-07-31T06:20:51;100470.00;;;37.21;43.84
74230;BME280;62589;12.568;99.958;2023-07-31T06:23:20;100471.56;;;37.22;43.78
74230;BME280;62589;12.568;99.958;2023-07-31T06:25:49;100458.53;;;37.11;43.32
74230;BME280;62589;12.568;99.958;2023-07-31T06:28:16;100457.25;;;37.16;43.19
74230;BME280;62589;12.568;99.958;2023-07-31T06:30:42;100460.84;;;37.16;43.03
74230;BME280;62589;12.568;99.958;2023-07-31T06:33:09;100453.78;;;37.08;42.51
74230;BME280;62589;12.568;99.958;2023-07-31T06:35:35;100443.81;;;37.07;42.19
74230;BME280;62589;12.568;99.958;2023-07-31T06:38:02;100439.38;;;37.10;41.61
74230;BME280;62589;12.568;99.958;2023-07-31T06:40:29;100441.00;;;37.07;41.88
74230;BME280;62589;12.568;99.958;2023-07-31T06:42:56;100432.19;;;37.09;41.70
74230;BME280;62589;12.568;99.958;2023-07-31T06:45:22;100435.78;;;37.09;41.62
74230;BME280;62589;12.568;99.958;2023-07-31T06:47:49;100428.72;;;37.01;41.15
74230;BME280;62589;12.568;99.958;2023-07-31T06:50:15;100417.03;;;37.06;40.78
74230;BME280;62589;12.568;99.958;2023-07-31T06:52:42;100423.63;;;36.96;40.55
74230;BME280;62589;12.568;99.958;2023-07-31T06:55:18;100406.69;;;37.03;40.43
74230;BME280;62589;12.568;99.958;2023-07-31T06:57:45;100412.28;;;37.03;40.57
74230;BME280;62589;12.568;99.958;2023-07-31T07:00:15;100407.41;;;37.07;39.57
74230;BME280;62589;12.568;99.958;2023-07-31T07:02:42;100401.47;;;37.05;40.00
74230;BME280;62589;12.568;99.958;2023-07-31T07:05:09;100399.88;;;37.04;39.96
74230;BME280;62589;12.568;99.958;2023-07-31T07:07:36;100406.22;;;37.08;39.95
74230;BME280;62589;12.568;99.958;2023-07-31T07:10:03;100401.81;;;37.07;39.67
74230;BME280;62589;12.568;99.958;2023-07-31T07:12:32;100397.69;;;37.15;40.33
74230;BME280;62589;12.568;99.958;2023-07-31T07:15:00;100390.44;;;37.18;40.47
74230;BME280;62589;12.568;99.958;2023-07-31T07:17:28;100388.06;;;37.20;40.71
74230;BME280;62589;12.568;99.958;2023-07-31T07:19:57;100382.72;;;37.26;41.51
74230;BME280;62589;12.568;99.958;2023-07-31T07:22:24;100377.91;;;37.26;41.37
74230;BME280;62589;12.568;99.958;2023-07-31T07:24:51;100389.06;;;37.30;40.75
74230;BME280;62589;12.568;99.958;2023-07-31T07:27:18;100381.44;;;37.30;40.47
74230;BME280;62589;12.568;99.958;2023-07-31T07:29:46;100370.25;;;37.30;40.63
74230;BME280;62589;12.568;99.958;2023-07-31T07:32:12;100365.44;;;37.31;40.12
74230;BME280;62589;12.568;99.958;2023-07-31T07:34:40;100352.59;;;37.33;40.80
74230;BME280;62589;12.568;99.958;2023-07-31T07:37:07;100356.56;;;37.36;40.96
74230;BME280;62589;12.568;99.958;2023-07-31T07:39:33;100363.72;;;37.37;41.28
74230;BME280;62589;12.568;99.958;2023-07-31T07:41:59;100351.75;;;37.36;41.04
74230;BME280;62589;12.568;99.958;2023-07-31T07:44:26;100350.16;;;37.35;40.45
74230;BME280;62589;12.568;99.958;2023-07-31T07:46:52;100344.56;;;37.35;40.22
74230;BME280;62589;12.568;99.958;2023-07-31T07:49:21;100338.97;;;37.35;40.61
74230;BME280;62589;12.568;99.958;2023-07-31T07:51:49;100352.66;;;37.30;40.11
74230;BME280;62589;12.568;99.958;2023-07-31T07:54:16;100340.66;;;37.29;40.69
74230;BME280;62589;12.568;99.958;2023-07-31T07:56:43;100343.09;;;37.27;40.65
74230;BME280;62589;12.568;99.958;2023-07-31T07:59:09;100353.44;;;37.30;41.16
74230;BME280;62589;12.568;99.958;2023-07-31T08:01:36;100339.03;;;37.32;41.03
74230;BME280;62589;12.568;99.958;2023-07-31T08:04:02;100331.59;;;37.22;40.93
74230;BME280;62589;12.568;99.958;2023-07-31T08:06:29;100338.72;;;37.26;40.17
74230;BME280;62589;12.568;99.958;2023-07-31T08:08:56;100344.03;;;37.21;40.42
74230;BME280;62589;12.568;99.958;2023-07-31T08:11:22;100344.03;;;37.21;39.90
74230;BME280;62589;12.568;99.958;2023-07-31T08:13:49;100336.00;;;37.23;40.18
74230;BME280;62589;12.568;99.958;2023-07-31T08:16:16;100343.97;;;37.24;40.41
74230;BME280;62589;12.568;99.958;2023-07-31T08:18:42;100346.06;;;37.20;39.85
74230;BME280;62589;12.568;99.958;2023-07-31T08:21:09;100338.38;;;37.24;40.47
74230;BME280;62589;12.568;99.958;2023-07-31T08:23:35;100343.47;;;37.29;40.79
74230;BME280;62589;12.568;99.958;2023-07-31T08:26:02;100325.88;;;37.29;40.48
74230;BME280;62589;12.568;99.958;2023-07-31T08:28:28;100320.66;;;37.31;41.05
74230;BME280;62589;12.568;99.958;2023-07-31T08:30:58;100326.66;;;37.29;40.92
74230;BME280;62589;12.568;99.958;2023-07-31T08:33:24;100322.59;;;37.34;41.04
74230;BME280;62589;12.568;99.958;2023-07-31T08:35:51;100308.59;;;37.34;41.31
74230;BME280;62589;12.568;99.958;2023-07-31T08:38:17;100323.31;;;37.38;40.61
74230;BME280;62589;12.568;99.958;2023-07-31T08:40:43;100328.63;;;37.32;40.21
74230;BME280;62589;12.568;99.958;2023-07-31T08:43:10;100311.69;;;37.39;40.53
74230;BME280;62589;12.568;99.958;2023-07-31T08:45:37;100304.88;;;37.40;40.82
74230;BME280;62589;12.568;99.958;2023-07-31T08:48:04;100313.59;;;37.42;40.91
74230;BME280;62589;12.568;99.958;2023-07-31T08:50:30;100313.53;;;37.46;40.67
74230;BME280;62589;12.568;99.958;2023-07-31T08:52:57;100301.09;;;37.47;40.87
74230;BME280;62589;12.568;99.958;2023-07-31T08:55:23;100307.06;;;37.49;40.73
74230;BME280;62589;12.568;99.958;2023-07-31T08:57:51;100299.53;;;37.46;41.14
74230;BME280;62589;12.568;99.958;2023-07-31T09:00:20;100295.44;;;37.50;41.59
74230;BME280;62589;12.568;99.958;2023-07-31T09:03:13;100285.81;;;37.52;41.55
74230;BME280;62589;12.568;99.958;2023-07-31T09:05:46;100288.25;;;37.49;41.62
74230;BME280;62589;12.568;99.958;2023-07-31T09:08:14;100275.03;;;37.50;42.45
74230;BME280;62589;12.568;99.958;2023-07-31T09:10:45;100289.75;;;37.54;41.87
74230;BME280;62589;12.568;99.958;2023-07-31T09:13:13;100295.38;;;37.54;42.07
74230;BME280;62589;12.568;99.958;2023-07-31T09:15:42;100286.97;;;37.54;41.50
74230;BME280;62589;12.568;99.958;2023-07-31T09:18:09;100292.28;;;37.48;42.34
74230;BME280;62589;12.568;99.958;2023-07-31T09:20:36;100294.72;;;37.46;42.27
74230;BME280;62589;12.568;99.958;2023-07-31T09:23:13;100301.91;;;37.47;42.10
74230;BME280;62589;12.568;99.958;2023-07-31T09:25:44;100302.31;;;37.46;41.42
74230;BME280;62589;12.568;99.958;2023-07-31T09:28:11;100301.91;;;37.47;41.79
74230;BME280;62589;12.568;99.958;2023-07-31T09:30:49;100292.28;;;37.48;41.89
74230;BME280;62589;12.568;99.958;2023-07-31T09:33:17;100304.69;;;37.47;41.56
74230;BME280;62589;12.568;99.958;2023-07-31T09:35:44;100290.69;;;37.47;41.67
74230;BME280;62589;12.568;99.958;2023-07-31T09:38:12;100297.94;;;37.45;41.45
74230;BME280;62589;12.568;99.958;2023-07-31T09:40:42;100289.91;;;37.47;41.26
74230;BME280;62589;12.568;99.958;2023-07-31T09:43:11;100299.53;;;37.46;41.52
74230;BME280;62589;12.568;99.958;2023-07-31T09:45:39;100285.09;;;37.47;41.56
74230;BME280;62589;12.568;99.958;2023-07-31T09:48:11;100298.38;;;37.43;41.39
74230;BME280;62589;12.568;99.958;2023-07-31T09:50:40;100295.56;;;37.43;41.32
74230;BME280;62589;12.568;99.958;2023-07-31T09:53:08;100302.84;;;37.41;41.29
74230;BME280;62589;12.568;99.958;2023-07-31T09:55:37;100305.19;;;37.42;41.79
74230;BME280;62589;12.568;99.958;2023-07-31T09:58:06;100306.00;;;37.43;41.54
74230;BME280;62589;12.568;99.958;2023-07-31T10:00:33;100310.00;;;37.42;41.26
74230;BME280;62589;12.568;99.958;2023-07-31T10:03:08;100311.31;;;37.37;40.45
74230;BME280;62589;12.568;99.958;2023-07-31T10:08:15;100327.69;;;37.39;40.76
74230;BME280;62589;12.568;99.958;2023-07-31T10:10:45;100341.69;;;37.39;40.46
74230;BME280;62589;12.568;99.958;2023-07-31T10:13:15;100330.13;;;37.37;40.40
74230;BME280;62589;12.568;99.958;2023-07-31T10:15:43;100340.97;;;37.35;40.41
74230;BME280;62589;12.568;99.958;2023-07-31T10:18:10;100341.75;;;37.35;40.78
74230;BME280;62589;12.568;99.958;2023-07-31T10:20:38;100350.53;;;37.37;40.46
74230;BME280;62589;12.568;99.958;2023-07-31T10:23:05;100348.50;;;37.38;41.02
74230;BME280;62589;12.568;99.958;2023-07-31T10:25:32;100345.34;;;37.36;41.29
74230;BME280;62589;12.568;99.958;2023-07-31T10:27:59;100352.97;;;37.12;41.16
74230;BME280;62589;12.568;99.958;2023-07-31T10:30:28;100351.19;;;37.22;41.44
74230;BME280;62589;12.568;99.958;2023-07-31T10:32:56;100363.97;;;37.23;41.56
74230;BME280;62589;12.568;99.958;2023-07-31T10:35:23;100349.69;;;37.17;40.60
74230;BME280;62589;12.568;99.958;2023-07-31T10:37:49;100359.34;;;37.12;40.53
74230;BME280;62589;12.568;99.958;2023-07-31T10:40:24;100352.59;;;37.10;40.29
74230;BME280;62589;12.568;99.958;2023-07-31T10:42:53;100350.22;;;37.08;40.36
74230;BME280;62589;12.568;99.958;2023-07-31T10:45:42;100367.38;;;37.10;40.05
74230;BME280;62589;12.568;99.958;2023-07-31T10:48:16;100361.22;;;36.99;40.19
74230;BME280;62589;12.568;99.958;2023-07-31T10:50:51;100368.88;;;36.95;40.39
74230;BME280;62589;12.568;99.958;2023-07-31T10:53:31;100348.13;;;36.93;40.42
74230;BME280;62589;12.568;99.958;2023-07-31T10:56:03;100384.56;;;36.89;40.59
74230;BME280;62589;12.568;99.958;2023-07-31T10:58:30;100372.16;;;36.90;40.79
74230;BME280;62589;12.568;99.958;2023-07-31T11:01:02;100375.84;;;36.83;41.16
74230;BME280;62589;12.568;99.958;2023-07-31T11:03:45;100372.78;;;36.78;41.56
74230;BME280;62589;12.568;99.958;2023-07-31T11:06:13;100368.72;;;36.79;41.78
74230;BME280;62589;12.568;99.958;2023-07-31T11:08:47;100379.56;;;36.77;41.93
74230;BME280;62589;12.568;99.958;2023-07-31T11:11:21;100387.19;;;36.76;42.27
74230;BME280;62589;12.568;99.958;2023-07-31T11:13:49;100370.81;;;36.75;42.07
74230;BME280;62589;12.568;99.958;2023-07-31T11:16:17;100380.78;;;36.76;42.17
74230;BME280;62589;12.568;99.958;2023-07-31T11:18:44;100388.38;;;36.75;42.19
74230;BME280;62589;12.568;99.958;2023-07-31T11:21:16;100389.69;;;36.67;42.56
74230;BME280;62589;12.568;99.958;2023-07-31T11:23:47;100387.31;;;36.66;42.62
74230;BME280;62589;12.568;99.958;2023-07-31T11:26:13;100388.88;;;36.67;42.76
74230;BME280;62589;12.568;99.958;2023-07-31T11:28:40;100380.13;;;36.65;42.67
74230;BME280;62589;12.568;99.958;2023-07-31T11:31:11;100396.53;;;36.63;42.91
74230;BME280;62589;12.568;99.958;2023-07-31T11:33:38;100404.94;;;36.63;42.75
74230;BME280;62589;12.568;99.958;2023-07-31T11:36:04;100394.16;;;36.61;42.78
74230;BME280;62589;12.568;99.958;2023-07-31T11:38:32;100385.47;;;36.56;42.69
74230;BME280;62589;12.568;99.958;2023-07-31T11:41:02;100405.91;;;36.53;42.74
74230;BME280;62589;12.568;99.958;2023-07-31T11:43:33;100405.09;;;36.52;42.58
74230;BME280;62589;12.568;99.958;2023-07-31T11:46:00;100417.09;;;36.53;42.90
74230;BME280;62589;12.568;99.958;2023-07-31T11:48:34;100421.94;;;36.48;43.13
74230;BME280;62589;12.568;99.958;2023-07-31T11:51:04;100425.53;;;36.49;43.11
74230;BME280;62589;12.568;99.958;2023-07-31T11:53:38;100425.53;;;36.49;43.07
74230;BME280;62589;12.568;99.958;2023-07-31T11:56:09;100426.72;;;36.48;43.34
74230;BME280;62589;12.568;99.958;2023-07-31T11:58:37;100425.09;;;36.51;43.10
74230;BME280;62589;12.568;99.958;2023-07-31T12:01:05;100431.50;;;36.51;43.36
74230;BME280;62589;12.568;99.958;2023-07-31T12:03:33;100427.56;;;36.45;42.98
74230;BME280;62589;12.568;99.958;2023-07-31T12:06:00;100451.53;;;36.46;43.43
74230;BME280;62589;12.568;99.958;2023-07-31T12:08:26;100452.31;;;36.46;43.08
74230;BME280;62589;12.568;99.958;2023-07-31T12:10:53;100449.94;;;36.45;43.13
74230;BME280;62589;12.568;99.958;2023-07-31T12:13:25;100461.13;;;36.45;43.44
74230;BME280;62589;12.568;99.958;2023-07-31T12:15:56;100449.28;;;36.37;43.03
74230;BME280;62589;12.568;99.958;2023-07-31T12:18:25;100455.69;;;36.34;43.15
74230;BME280;62589;12.568;99.958;2023-07-31T12:20:56;100456.50;;;36.35;43.43
74230;BME280;62589;12.568;99.958;2023-07-31T12:23:26;100461.22;;;36.38;43.38
74230;BME280;62589;12.568;99.958;2023-07-31T12:26:08;100458.88;;;36.36;43.52
74230;BME280;62589;12.568;99.958;2023-07-31T12:28:44;100461.28;;;36.34;43.60
74230;BME280;62589;12.568;99.958;2023-07-31T12:31:20;100461.28;;;36.34;43.58
74230;BME280;62589;12.568;99.958;2023-07-31T12:33:48;100461.28;;;36.34;43.86
74230;BME280;62589;12.568;99.958;2023-07-31T12:36:18;100467.72;;;36.31;43.97
74230;BME280;62589;12.568;99.958;2023-07-31T12:38:46;100478.56;;;36.22;43.84
74230;BME280;62589;12.568;99.958;2023-07-31T12:41:12;100468.97;;;36.27;43.77
74230;BME280;62589;12.568;99.958;2023-07-31T12:43:41;100478.97;;;36.24;43.94
74230;BME280;62589;12.568;99.958;2023-07-31T12:46:08;100489.31;;;36.27;43.69
74230;BME280;62589;12.568;99.958;2023-07-31T12:48:36;100484.16;;;36.22;43.70
74230;BME280;62589;12.568;99.958;2023-07-31T12:51:03;100484.94;;;36.23;43.74
74230;BME280;62589;12.568;99.958;2023-07-31T12:53:29;100490.53;;;36.23;43.84
74230;BME280;62589;12.568;99.958;2023-07-31T12:55:57;100499.72;;;36.23;43.54
74230;BME280;62589;12.568;99.958;2023-07-31T12:58:23;100500.50;;;36.24;43.53